Time;durP1;ratioP1;P1;durP2;ratioP2;P2;SDS_P1;SDS_P2;PMS_P1;PMS_P2;Temp;Humidity;BMP_temperature;BMP_pressure;BME280_temperature;BME280_humidity;BME280_pressure;Samples;Min_cycle;Max_cycle;Signal;HPM_P1;HPM_P2
2024/03/06 00:02:37;;;;;;;17.70;8.35;;;;;;;;;;5030128;28;20014;-68
2024/03/06 00:05:23;;;;;;;18.55;9.07;;;;;;;;;;5032418;28;20060;-69
2024/03/06 00:08:09;;;;;;;11.52;7.10;;;;;;;;;;5042203;28;20543;-69
2024/03/06 00:10:54;;;;;;;16.38;9.43;;;;;;;;;;5052406;28;20108;-69
2024/03/06 00:13:40;;;;;;;14.60;8.20;;;;;;;;;;5043759;28;20021;-69
2024/03/06 00:16:26;;;;;;;13.30;8.13;;;;;;;;;;5032015;28;20032;-69
2024/03/06 00:19:13;;;;;;;11.90;8.02;;;;;;;;;;5037414;28;20167;-69
2024/03/06 00:22:00;;;;;;;14.88;8.15;;;;;;;;;;5032322;28;20079;-69
2024/03/06 00:24:47;;;;;;;14.55;8.80;;;;;;;;;;5035602;28;20033;-69
2024/03/06 00:27:33;;;;;;;13.63;7.40;;;;;;;;;;5034795;28;20453;-69
2024/03/06 00:30:18;;;;;;;12.30;8.25;;;;;;;;;;5017031;28;20079;-69
2024/03/06 00:33:04;;;;;;;15.13;7.78;;;;;;;;;;5037157;28;20114;-69
2024/03/06 00:35:50;;;;;;;13.90;8.25;;;;;;;;;;5045914;28;20028;-69
2024/03/06 00:38:36;;;;;;;15.35;7.97;;;;;;;;;;5032018;28;20021;-66
2024/03/06 00:41:21;;;;;;;17.15;8.60;;;;;;;;;;5032977;28;20022;-66
2024/03/06 00:44:07;;;;;;;15.68;8.73;;;;;;;;;;5032898;28;20021;-67
2024/03/06 00:46:53;;;;;;;16.67;7.50;;;;;;;;;;5032391;28;20461;-66
2024/03/06 00:49:38;;;;;;;15.43;8.75;;;;;;;;;;5041765;28;20025;-67
2024/03/06 00:52:24;;;;;;;14.82;8.40;;;;;;;;;;5044797;28;20056;-67
2024/03/06 00:55:10;;;;;;;17.55;10.00;;;;;;;;;;5042665;28;20508;-66
2024/03/06 00:57:55;;;;;;;13.85;8.23;;;;;;;;;;5054056;28;20021;-66
2024/03/06 01:00:41;;;;;;;16.30;9.00;;;;;;;;;;5046616;28;20485;-67
2024/03/06 01:03:26;;;;;;;18.80;7.35;;;;;;;;;;5055538;28;20456;-66
2024/03/06 01:06:12;;;;;;;15.45;6.63;;;;;;;;;;5051249;28;20441;-66
2024/03/06 01:08:58;;;;;;;15.85;8.88;;;;;;;;;;5038109;28;20083;-66
2024/03/06 01:11:46;;;;;;;12.85;7.15;;;;;;;;;;5022090;28;20379;-67
2024/03/06 01:14:32;;;;;;;17.98;9.10;;;;;;;;;;5037137;28;20060;-67
2024/03/06 01:17:18;;;;;;;16.15;7.97;;;;;;;;;;5052845;28;20021;-66
2024/03/06 01:20:06;;;;;;;17.40;8.93;;;;;;;;;;5055376;28;20028;-66
2024/03/06 01:22:54;;;;;;;15.65;9.93;;;;;;;;;;5054287;28;20021;-67
2024/03/06 01:25:40;;;;;;;16.15;8.13;;;;;;;;;;5055133;28;20401;-66
2024/03/06 01:28:26;;;;;;;12.90;8.15;;;;;;;;;;5038261;28;20108;-66
2024/03/06 01:31:11;;;;;;;18.23;8.27;;;;;;;;;;5035144;28;20401;-66
2024/03/06 01:33:57;;;;;;;14.73;8.40;;;;;;;;;;5041301;28;20029;-66
2024/03/06 01:36:43;;;;;;;14.60;8.68;;;;;;;;;;5019829;28;20026;-66
2024/03/06 01:39:28;;;;;;;21.75;9.15;;;;;;;;;;5037015;28;20092;-66
2024/03/06 01:42:16;;;;;;;17.05;8.02;;;;;;;;;;5049214;28;20490;-66
2024/03/06 01:45:02;;;;;;;16.10;8.93;;;;;;;;;;5020722;28;20033;-66
2024/03/06 01:47:50;;;;;;;18.10;9.45;;;;;;;;;;5036154;28;20509;-66
2024/03/06 01:50:36;;;;;;;14.48;8.02;;;;;;;;;;5054614;28;20055;-66
2024/03/06 01:53:22;;;;;;;15.95;7.40;;;;;;;;;;5040005;28;20017;-67
2024/03/06 01:56:11;;;;;;;16.58;8.43;;;;;;;;;;5039436;28;20029;-66
2024/03/06 01:58:58;;;;;;;14.57;9.10;;;;;;;;;;5019891;28;20036;-66
2024/03/06 02:01:44;;;;;;;13.60;7.75;;;;;;;;;;5034627;28;20017;-66
2024/03/06 02:04:30;;;;;;;15.55;8.05;;;;;;;;;;5039487;28;20095;-67
2024/03/06 02:07:16;;;;;;;15.73;8.35;;;;;;;;;;5033463;28;20040;-66
2024/03/06 02:10:04;;;;;;;18.75;8.43;;;;;;;;;;5038795;28;20394;-67
2024/03/06 02:12:50;;;;;;;22.92;10.23;;;;;;;;;;5054686;28;20033;-66
2024/03/06 02:15:36;;;;;;;11.40;6.43;;;;;;;;;;5052723;28;20433;-66
2024/03/06 02:18:22;;;;;;;14.75;8.10;;;;;;;;;;5036776;28;20025;-66
2024/03/06 02:21:07;;;;;;;14.57;8.90;;;;;;;;;;5033641;28;20022;-66
2024/03/06 02:23:54;;;;;;;14.38;8.27;;;;;;;;;;5034254;28;20141;-66
2024/03/06 02:26:39;;;;;;;15.07;7.95;;;;;;;;;;5037728;28;20164;-66
2024/03/06 02:29:25;;;;;;;15.20;7.38;;;;;;;;;;5053534;28;20446;-66
2024/03/06 02:32:13;;;;;;;17.58;9.02;;;;;;;;;;5054769;28;20029;-67
2024/03/06 02:35:02;;;;;;;14.68;6.53;;;;;;;;;;5052886;28;20463;-67
2024/03/06 02:37:48;;;;;;;13.88;7.80;;;;;;;;;;5038991;28;20031;-66
2024/03/06 02:40:34;;;;;;;15.57;6.00;;;;;;;;;;5054242;28;20454;-66
2024/03/06 02:43:19;;;;;;;12.55;7.30;;;;;;;;;;5052827;28;20478;-66
2024/03/06 02:46:05;;;;;;;14.32;7.80;;;;;;;;;;5053980;28;20021;-67
2024/03/06 02:48:51;;;;;;;12.70;8.10;;;;;;;;;;5053903;28;20021;-66
2024/03/06 02:51:36;;;;;;;14.38;7.20;;;;;;;;;;5053070;28;20021;-67
2024/03/06 02:54:22;;;;;;;16.05;8.70;;;;;;;;;;5052843;28;20029;-67
2024/03/06 02:57:08;;;;;;;12.93;6.95;;;;;;;;;;5053069;28;20379;-67
2024/03/06 02:59:55;;;;;;;12.27;7.95;;;;;;;;;;5053697;28;20029;-66
2024/03/06 03:02:40;;;;;;;16.77;7.47;;;;;;;;;;5038635;28;20486;-66
2024/03/06 03:05:26;;;;;;;13.40;6.47;;;;;;;;;;5050387;28;20462;-66
2024/03/06 03:08:12;;;;;;;14.93;6.90;;;;;;;;;;5050351;28;20423;-68
2024/03/06 03:10:57;;;;;;;17.58;9.32;;;;;;;;;;5052826;28;20497;-67
2024/03/06 03:13:43;;;;;;;11.43;6.35;;;;;;;;;;5052658;28;20481;-68
2024/03/06 03:16:29;;;;;;;14.93;8.35;;;;;;;;;;5052389;28;20029;-68
2024/03/06 03:19:16;;;;;;;18.60;8.45;;;;;;;;;;5051669;28;20025;-67
2024/03/06 03:22:04;;;;;;;18.73;8.60;;;;;;;;;;5053218;28;20020;-67
2024/03/06 03:24:49;;;;;;;14.70;7.88;;;;;;;;;;5036109;28;20036;-68
2024/03/06 03:27:36;;;;;;;14.85;8.95;;;;;;;;;;5051978;28;20111;-67
2024/03/06 03:30:21;;;;;;;17.13;7.93;;;;;;;;;;5052378;28;20025;-67
2024/03/06 03:33:07;;;;;;;15.55;7.60;;;;;;;;;;5045407;28;20025;-67
2024/03/06 03:35:53;;;;;;;21.02;8.93;;;;;;;;;;5052375;28;20500;-67
2024/03/06 03:38:40;;;;;;;12.95;8.05;;;;;;;;;;5050512;28;20032;-68
2024/03/06 03:41:26;;;;;;;14.55;8.50;;;;;;;;;;5036879;28;20041;-68
2024/03/06 03:44:15;;;;;;;12.30;7.97;;;;;;;;;;5039171;28;20033;-68
2024/03/06 03:47:02;;;;;;;14.63;7.35;;;;;;;;;;5017344;28;20430;-68
2024/03/06 03:49:47;;;;;;;13.40;7.70;;;;;;;;;;5033870;28;20097;-67
2024/03/06 03:52:33;;;;;;;14.25;9.35;;;;;;;;;;5031529;28;20032;-68
2024/03/06 03:55:18;;;;;;;12.88;6.85;;;;;;;;;;5034150;28;20465;-67
2024/03/06 03:58:06;;;;;;;14.32;7.95;;;;;;;;;;5031915;28;20132;-68
2024/03/06 04:00:55;;;;;;;17.52;7.88;;;;;;;;;;5045999;28;20027;-67
2024/03/06 04:03:42;;;;;;;16.27;8.50;;;;;;;;;;5052529;28;20056;-68
2024/03/06 04:06:28;;;;;;;13.30;8.73;;;;;;;;;;5051476;28;20029;-67
2024/03/06 04:09:14;;;;;;;13.27;8.23;;;;;;;;;;5052499;28;20563;-67
2024/03/06 04:12:00;;;;;;;15.50;8.57;;;;;;;;;;5051875;28;20032;-67
2024/03/06 04:14:45;;;;;;;14.73;7.57;;;;;;;;;;5051470;28;20049;-67
2024/03/06 04:17:31;;;;;;;14.95;8.60;;;;;;;;;;5051705;28;20032;-67
2024/03/06 04:20:17;;;;;;;13.60;7.13;;;;;;;;;;5052002;28;20018;-67
2024/03/06 04:23:03;;;;;;;13.05;7.00;;;;;;;;;;5052099;28;20393;-67
2024/03/06 04:25:48;;;;;;;14.32;8.02;;;;;;;;;;5052548;28;20028;-68
2024/03/06 04:28:34;;;;;;;12.77;7.00;;;;;;;;;;5051776;28;20025;-67
2024/03/06 04:31:20;;;;;;;13.85;8.25;;;;;;;;;;5054470;28;20543;-68
2024/03/06 04:34:05;;;;;;;16.17;8.75;;;;;;;;;;5055632;28;20040;-68
2024/03/06 04:36:51;;;;;;;15.05;7.80;;;;;;;;;;5048421;28;20033;-67
2024/03/06 04:39:36;;;;;;;14.98;9.00;;;;;;;;;;5056107;28;20021;-67
2024/03/06 04:42:22;;;;;;;15.68;8.90;;;;;;;;;;5041595;28;20022;-67
2024/03/06 04:45:12;;;;;;;13.48;7.20;;;;;;;;;;5035046;28;20017;-67
2024/03/06 04:47:58;;;;;;;10.90;8.20;;;;;;;;;;5012535;28;20032;-67
2024/03/06 04:50:44;;;;;;;15.75;8.98;;;;;;;;;;5035466;28;20033;-67
2024/03/06 04:53:30;;;;;;;13.82;8.57;;;;;;;;;;5037710;28;20486;-68
2024/03/06 04:56:18;;;;;;;15.32;8.65;;;;;;;;;;5035604;28;20561;-68
2024/03/06 04:59:04;;;;;;;15.13;9.05;;;;;;;;;;5035931;28;20028;-67
2024/03/06 05:01:50;;;;;;;15.50;8.23;;;;;;;;;;5037420;28;20028;-67
2024/03/06 05:04:35;;;;;;;17.77;8.25;;;;;;;;;;5050157;28;20485;-67
2024/03/06 05:07:21;;;;;;;15.98;8.23;;;;;;;;;;5052992;28;20095;-67
2024/03/06 05:10:09;;;;;;;20.75;9.00;;;;;;;;;;5046320;28;20068;-67
2024/03/06 05:12:55;;;;;;;14.13;8.63;;;;;;;;;;5035904;28;20033;-67
2024/03/06 05:15:42;;;;;;;19.85;9.10;;;;;;;;;;5035114;28;20025;-67
2024/03/06 05:18:28;;;;;;;13.98;8.32;;;;;;;;;;5036708;28;20055;-68
2024/03/06 05:21:13;;;;;;;16.15;7.78;;;;;;;;;;5054660;28;20440;-68
2024/03/06 05:23:59;;;;;;;17.67;8.80;;;;;;;;;;5054769;28;20017;-67
2024/03/06 05:26:44;;;;;;;16.60;8.93;;;;;;;;;;5054812;28;20028;-67
2024/03/06 05:29:30;;;;;;;18.75;8.20;;;;;;;;;;5054727;28;20158;-67
2024/03/06 05:32:16;;;;;;;15.65;9.00;;;;;;;;;;5040513;28;20017;-68
2024/03/06 05:35:02;;;;;;;15.35;7.18;;;;;;;;;;5040384;28;20448;-67
2024/03/06 05:37:47;;;;;;;16.08;8.43;;;;;;;;;;5055154;28;20035;-67
2024/03/06 05:40:37;;;;;;;14.27;8.00;;;;;;;;;;5053780;28;20032;-68
2024/03/06 05:43:22;;;;;;;15.43;8.95;;;;;;;;;;5045997;28;20033;-67
2024/03/06 05:46:08;;;;;;;13.52;8.27;;;;;;;;;;5054290;28;20017;-67
2024/03/06 05:48:54;;;;;;;14.82;8.57;;;;;;;;;;5052207;28;20056;-68
2024/03/06 05:51:39;;;;;;;19.77;9.75;;;;;;;;;;5034232;28;20025;-67
2024/03/06 05:54:25;;;;;;;14.20;9.52;;;;;;;;;;5036697;28;20032;-68
2024/03/06 05:57:10;;;;;;;16.48;9.13;;;;;;;;;;5036267;28;20483;-68
2024/03/06 05:59:56;;;;;;;16.77;8.77;;;;;;;;;;5035099;28;20038;-67
2024/03/06 06:02:42;;;;;;;18.45;9.27;;;;;;;;;;5036810;28;20026;-67
2024/03/06 06:05:28;;;;;;;16.95;9.25;;;;;;;;;;5033866;28;20052;-66
2024/03/06 06:08:13;;;;;;;15.13;9.05;;;;;;;;;;5041567;28;20104;-67
2024/03/06 06:10:59;;;;;;;13.70;8.50;;;;;;;;;;5053758;28;20025;-68
2024/03/06 06:13:45;;;;;;;14.35;9.02;;;;;;;;;;5045184;28;20021;-67
2024/03/06 06:16:37;;;;;;;16.20;8.60;;;;;;;;;;5034369;28;20028;-68
2024/03/06 06:19:23;;;;;;;16.48;8.70;;;;;;;;;;5020810;28;20032;-68
2024/03/06 06:22:10;;;;;;;14.65;8.90;;;;;;;;;;5033650;28;20490;-68
2024/03/06 06:24:56;;;;;;;17.50;10.05;;;;;;;;;;5021741;28;20029;-67
2024/03/06 06:27:42;;;;;;;16.13;9.23;;;;;;;;;;5047051;28;20029;-67
2024/03/06 06:30:27;;;;;;;15.38;9.10;;;;;;;;;;5041591;28;20029;-67
2024/03/06 06:33:13;;;;;;;17.90;9.00;;;;;;;;;;5036152;28;20033;-67
2024/03/06 06:35:59;;;;;;;16.75;8.15;;;;;;;;;;5035617;28;20029;-68
2024/03/06 06:38:45;;;;;;;16.50;8.82;;;;;;;;;;5034015;28;20033;-68
2024/03/06 06:41:30;;;;;;;18.80;10.07;;;;;;;;;;5018944;28;22749;-68
2024/03/06 06:44:16;;;;;;;16.17;8.40;;;;;;;;;;5050031;28;20036;-68
2024/03/06 06:47:01;;;;;;;17.75;9.30;;;;;;;;;;5053407;28;20025;-68
2024/03/06 06:49:47;;;;;;;17.70;8.57;;;;;;;;;;5053153;28;20036;-68
2024/03/06 06:52:33;;;;;;;16.83;9.30;;;;;;;;;;5053257;28;20059;-67
2024/03/06 06:55:22;;;;;;;17.83;9.18;;;;;;;;;;5041935;28;20140;-67
2024/03/06 06:58:08;;;;;;;18.42;8.45;;;;;;;;;;5019024;28;20026;-68
2024/03/06 07:00:54;;;;;;;20.35;9.88;;;;;;;;;;5040742;28;20026;-69
2024/03/06 07:03:39;;;;;;;16.55;9.27;;;;;;;;;;5032922;28;20109;-70
2024/03/06 07:06:25;;;;;;;16.60;9.57;;;;;;;;;;5039702;28;20048;-69
2024/03/06 07:09:11;;;;;;;18.05;9.60;;;;;;;;;;5052956;28;20086;-69
2024/03/06 07:11:57;;;;;;;18.60;8.40;;;;;;;;;;5053120;28;20082;-70
2024/03/06 07:14:42;;;;;;;18.83;9.68;;;;;;;;;;5052134;28;20185;-70
2024/03/06 07:17:28;;;;;;;19.92;9.23;;;;;;;;;;5052719;28;20082;-70
2024/03/06 07:20:14;;;;;;;16.77;8.65;;;;;;;;;;5052315;28;20452;-70
2024/03/06 07:22:59;;;;;;;15.88;8.93;;;;;;;;;;5027154;28;20022;-70
2024/03/06 07:25:45;;;;;;;17.27;9.27;;;;;;;;;;5042969;28;20032;-70
2024/03/06 07:28:30;;;;;;;17.90;10.27;;;;;;;;;;5052257;28;20024;-70
2024/03/06 07:31:16;;;;;;;23.13;9.25;;;;;;;;;;5045733;28;20033;-69
2024/03/06 07:34:02;;;;;;;15.80;8.52;;;;;;;;;;5031981;28;20025;-71
2024/03/06 07:36:48;;;;;;;17.65;10.60;;;;;;;;;;5042348;28;20027;-69
2024/03/06 07:39:34;;;;;;;18.02;9.80;;;;;;;;;;5037399;28;20029;-70
2024/03/06 07:42:21;;;;;;;20.80;9.18;;;;;;;;;;5051306;28;20017;-70
2024/03/06 07:45:09;;;;;;;16.90;8.48;;;;;;;;;;5052017;28;20397;-70
2024/03/06 07:47:55;;;;;;;18.15;9.48;;;;;;;;;;5038379;28;20028;-70
2024/03/06 07:50:41;;;;;;;18.05;10.68;;;;;;;;;;5034828;28;20083;-70
2024/03/06 07:53:27;;;;;;;17.23;8.85;;;;;;;;;;5018056;28;20155;-70
2024/03/06 07:56:13;;;;;;;18.02;7.40;;;;;;;;;;5031756;28;20405;-70
2024/03/06 07:59:00;;;;;;;18.30;8.45;;;;;;;;;;5031772;28;20018;-70
2024/03/06 08:01:45;;;;;;;20.40;8.63;;;;;;;;;;5048682;28;20406;-69
2024/03/06 08:04:31;;;;;;;17.55;8.95;;;;;;;;;;5051348;28;20017;-70
2024/03/06 08:07:17;;;;;;;20.85;9.40;;;;;;;;;;5035133;28;20025;-70
2024/03/06 08:10:02;;;;;;;18.38;9.90;;;;;;;;;;5037341;28;20563;-70
2024/03/06 08:12:50;;;;;;;15.70;9.45;;;;;;;;;;5033165;28;20018;-70
2024/03/06 08:15:36;;;;;;;23.02;10.18;;;;;;;;;;5025523;28;20021;-71
2024/03/06 08:18:22;;;;;;;16.25;8.43;;;;;;;;;;5017559;28;20031;-70
2024/03/06 08:21:07;;;;;;;13.98;9.05;;;;;;;;;;5036354;28;20025;-70
2024/03/06 08:23:53;;;;;;;20.98;9.13;;;;;;;;;;5051857;28;20021;-70
2024/03/06 08:26:39;;;;;;;18.42;9.20;;;;;;;;;;5052119;28;20025;-70
2024/03/06 08:29:25;;;;;;;16.17;8.25;;;;;;;;;;5036550;28;20040;-70
2024/03/06 08:32:10;;;;;;;15.93;9.38;;;;;;;;;;5051757;28;20025;-70
2024/03/06 08:34:56;;;;;;;17.55;9.88;;;;;;;;;;5051384;28;20021;-70
2024/03/06 08:37:42;;;;;;;18.38;8.25;;;;;;;;;;5051697;28;20092;-70
2024/03/06 08:40:28;;;;;;;16.80;9.82;;;;;;;;;;5051745;28;20490;-70
2024/03/06 08:43:15;;;;;;;15.30;8.38;;;;;;;;;;5049581;28;20048;-71
2024/03/06 08:46:00;;;;;;;16.75;8.90;;;;;;;;;;5042311;28;20029;-70
2024/03/06 08:48:46;;;;;;;16.02;8.20;;;;;;;;;;5031616;28;20029;-70
2024/03/06 08:51:32;;;;;;;18.40;8.48;;;;;;;;;;5049603;28;20063;-70
2024/03/06 08:54:18;;;;;;;14.05;8.70;;;;;;;;;;5047290;28;20520;-70
2024/03/06 08:57:04;;;;;;;15.82;6.97;;;;;;;;;;5032478;28;20465;-70
2024/03/06 08:59:49;;;;;;;14.18;7.65;;;;;;;;;;5032547;28;20036;-70
2024/03/06 09:02:35;;;;;;;15.85;7.40;;;;;;;;;;5041507;28;20390;-70
2024/03/06 09:05:21;;;;;;;15.43;8.20;;;;;;;;;;5051703;28;20044;-70
2024/03/06 09:08:07;;;;;;;14.40;7.60;;;;;;;;;;5036338;28;20078;-70
2024/03/06 09:10:53;;;;;;;17.10;8.48;;;;;;;;;;5047873;28;20099;-71
2024/03/06 09:13:39;;;;;;;16.90;8.43;;;;;;;;;;5039738;28;20036;-70
2024/03/06 09:16:25;;;;;;;15.93;7.95;;;;;;;;;;5045641;28;20025;-70
2024/03/06 09:19:10;;;;;;;12.48;7.15;;;;;;;;;;5032571;28;20178;-70
2024/03/06 09:21:56;;;;;;;13.43;7.00;;;;;;;;;;5044746;28;20022;-70
2024/03/06 09:24:42;;;;;;;11.07;7.18;;;;;;;;;;5034497;28;20490;-70
2024/03/06 09:27:28;;;;;;;9.82;6.20;;;;;;;;;;5042267;28;20025;-70
2024/03/06 09:30:13;;;;;;;10.93;6.75;;;;;;;;;;5047923;28;20072;-70
2024/03/06 09:32:59;;;;;;;10.02;6.43;;;;;;;;;;5040332;28;20116;-70
2024/03/06 09:35:45;;;;;;;7.72;6.53;;;;;;;;;;5035690;28;20033;-70
2024/03/06 09:38:30;;;;;;;13.07;6.65;;;;;;;;;;5034185;28;20029;-70
2024/03/06 09:41:16;;;;;;;12.95;6.93;;;;;;;;;;5050779;28;20032;-70
2024/03/06 09:44:02;;;;;;;9.35;6.15;;;;;;;;;;5053539;28;20056;-70
2024/03/06 09:46:49;;;;;;;12.80;6.97;;;;;;;;;;5022891;28;20033;-70
2024/03/06 09:49:35;;;;;;;11.85;6.88;;;;;;;;;;5019771;28;20033;-71
2024/03/06 09:52:22;;;;;;;12.88;6.97;;;;;;;;;;5049332;28;20029;-70
2024/03/06 09:55:09;;;;;;;10.40;6.82;;;;;;;;;;5038677;28;20025;-70
2024/03/06 09:57:55;;;;;;;10.75;6.20;;;;;;;;;;5039756;28;20059;-70
2024/03/06 10:00:41;;;;;;;9.23;5.72;;;;;;;;;;5038545;28;20551;-72
2024/03/06 10:03:28;;;;;;;9.98;5.25;;;;;;;;;;5038377;28;20418;-70
2024/03/06 10:06:13;;;;;;;10.45;5.75;;;;;;;;;;5041407;28;20498;-70
2024/03/06 10:09:08;;;;;;;10.65;6.07;;;;;;;;;;5053022;28;20032;-70
2024/03/06 10:11:56;;;;;;;9.70;6.55;;;;;;;;;;5037772;28;20117;-70
2024/03/06 10:14:54;;;;;;;9.70;5.78;;;;;;;;;;5052175;28;20032;-71
2024/03/06 10:17:39;;;;;;;8.43;5.40;;;;;;;;;;5053095;28;20025;-70
2024/03/06 10:20:27;;;;;;;8.38;5.93;;;;;;;;;;5053370;28;20021;-70
2024/03/06 10:23:14;;;;;;;9.55;6.43;;;;;;;;;;5052622;28;20083;-70
2024/03/06 10:26:00;;;;;;;7.85;6.10;;;;;;;;;;5051559;28;20478;-70
2024/03/06 10:28:46;;;;;;;9.02;5.78;;;;;;;;;;5036734;28;20021;-70
2024/03/06 10:31:31;;;;;;;8.13;5.55;;;;;;;;;;5052321;28;20029;-70
2024/03/06 10:34:20;;;;;;;7.43;5.78;;;;;;;;;;5051773;28;20025;-70
2024/03/06 10:37:05;;;;;;;8.38;5.10;;;;;;;;;;5051860;28;20075;-70
2024/03/06 10:39:54;;;;;;;8.65;5.57;;;;;;;;;;5036521;28;20033;-70
2024/03/06 10:42:42;;;;;;;7.07;5.28;;;;;;;;;;5051935;28;20056;-70
2024/03/06 10:45:49;;;;;;;9.27;5.45;;;;;;;;;;5036125;28;20037;-71
2024/03/06 10:48:36;;;;;;;7.22;5.05;;;;;;;;;;5040706;28;20031;-70
2024/03/06 10:51:22;;;;;;;7.45;4.97;;;;;;;;;;5015155;28;20040;-70
2024/03/06 10:54:08;;;;;;;7.60;5.40;;;;;;;;;;5028197;28;20021;-71
2024/03/06 10:56:54;;;;;;;7.95;5.22;;;;;;;;;;5048259;28;20559;-70
2024/03/06 10:59:41;;;;;;;8.80;5.30;;;;;;;;;;5047955;28;20033;-70
2024/03/06 11:02:28;;;;;;;11.02;5.40;;;;;;;;;;5033677;28;20033;-70
2024/03/06 11:05:14;;;;;;;7.10;4.72;;;;;;;;;;5032068;28;20104;-71
2024/03/06 11:07:59;;;;;;;7.72;5.72;;;;;;;;;;5016571;28;20034;-69
2024/03/06 11:10:45;;;;;;;7.63;5.05;;;;;;;;;;5050067;28;20029;-69
2024/03/06 11:13:34;;;;;;;7.85;4.50;;;;;;;;;;5051792;28;20379;-69
2024/03/06 11:16:27;;;;;;;6.90;4.15;;;;;;;;;;5035549;28;20461;-69
2024/03/06 11:19:13;;;;;;;11.02;6.20;;;;;;;;;;5002410;28;20068;-69
2024/03/06 11:21:59;;;;;;;9.50;6.50;;;;;;;;;;5031318;28;20101;-69
2024/03/06 11:24:45;;;;;;;8.25;5.97;;;;;;;;;;5031842;28;20039;-70
2024/03/06 11:27:31;;;;;;;9.05;5.78;;;;;;;;;;5032048;28;20109;-70
2024/03/06 11:30:21;;;;;;;8.90;6.13;;;;;;;;;;5030798;28;20028;-69
2024/03/06 11:33:08;;;;;;;8.85;6.05;;;;;;;;;;5043785;28;20017;-69
2024/03/06 11:36:20;;;;;;;7.97;4.93;;;;;;;;;;5050701;28;20501;-69
2024/03/06 11:39:07;;;;;;;10.10;5.65;;;;;;;;;;5035392;28;20021;-69
2024/03/06 11:41:53;;;;;;;5.95;4.80;;;;;;;;;;5049352;28;20017;-70
2024/03/06 11:44:53;;;;;;;8.90;5.85;;;;;;;;;;5043965;28;20486;-69
2024/03/06 11:48:01;;;;;;;6.90;4.70;;;;;;;;;;5015269;28;20108;-70
2024/03/06 11:50:47;;;;;;;8.05;5.53;;;;;;;;;;5041177;28;20490;-69
2024/03/06 11:53:39;;;;;;;8.70;5.18;;;;;;;;;;5051387;28;20033;-70
2024/03/06 11:56:25;;;;;;;8.75;5.35;;;;;;;;;;5034040;28;20033;-69
2024/03/06 11:59:10;;;;;;;7.13;4.80;;;;;;;;;;5029472;28;20108;-70
2024/03/06 12:01:58;;;;;;;10.52;5.97;;;;;;;;;;5038740;28;20018;-69
2024/03/06 12:04:43;;;;;;;7.25;5.40;;;;;;;;;;5016455;28;20029;-69
2024/03/06 12:07:29;;;;;;;9.00;5.30;;;;;;;;;;5046899;28;20033;-67
2024/03/06 12:10:16;;;;;;;8.38;4.55;;;;;;;;;;5050711;28;20375;-69
2024/03/06 12:13:03;;;;;;;8.93;5.20;;;;;;;;;;5050131;28;20035;-69
2024/03/06 12:15:48;;;;;;;5.85;5.03;;;;;;;;;;5049531;28;20516;-69
2024/03/06 12:18:34;;;;;;;7.05;4.28;;;;;;;;;;5050406;28;20405;-69
2024/03/06 12:21:20;;;;;;;8.70;6.15;;;;;;;;;;5050971;28;20478;-69
2024/03/06 12:24:09;;;;;;;7.20;5.50;;;;;;;;;;5050710;28;20032;-69
2024/03/06 12:27:00;;;;;;;8.93;5.95;;;;;;;;;;5050692;28;20028;-68
2024/03/06 12:29:46;;;;;;;9.02;5.72;;;;;;;;;;5050452;28;20025;-69
2024/03/06 12:32:32;;;;;;;8.82;5.63;;;;;;;;;;5051113;28;20025;-70
2024/03/06 12:35:25;;;;;;;12.73;6.03;;;;;;;;;;5030936;28;20064;-69
2024/03/06 12:38:14;;;;;;;12.27;6.10;;;;;;;;;;5033969;28;20151;-67
2024/03/06 12:41:00;;;;;;;8.85;6.35;;;;;;;;;;5050230;28;20031;-69
2024/03/06 12:43:46;;;;;;;10.80;6.32;;;;;;;;;;5048282;28;20025;-69
2024/03/06 12:46:31;;;;;;;6.95;5.28;;;;;;;;;;5050016;28;20032;-69
2024/03/06 12:49:18;;;;;;;8.55;5.35;;;;;;;;;;5036100;28;20029;-70
2024/03/06 12:52:04;;;;;;;10.30;5.43;;;;;;;;;;5031206;28;20135;-68
2024/03/06 12:54:50;;;;;;;6.82;4.95;;;;;;;;;;5044419;28;20036;-70
2024/03/06 12:57:36;;;;;;;10.43;6.00;;;;;;;;;;5053482;28;20021;-69
2024/03/06 13:00:22;;;;;;;9.88;6.05;;;;;;;;;;5053978;28;20103;-69
2024/03/06 13:03:08;;;;;;;8.55;5.43;;;;;;;;;;5054244;28;20025;-69
2024/03/06 13:05:54;;;;;;;8.63;5.55;;;;;;;;;;5052649;28;20115;-69
2024/03/06 13:08:39;;;;;;;12.77;6.38;;;;;;;;;;5054522;28;20053;-69
2024/03/06 13:11:25;;;;;;;8.18;5.70;;;;;;;;;;5053435;28;20040;-69
2024/03/06 13:14:12;;;;;;;9.55;6.07;;;;;;;;;;5054170;28;20090;-70
2024/03/06 13:16:58;;;;;;;11.30;5.47;;;;;;;;;;5053623;28;20029;-69
2024/03/06 13:19:44;;;;;;;9.23;5.88;;;;;;;;;;5031803;28;20088;-69
2024/03/06 13:22:29;;;;;;;9.27;5.75;;;;;;;;;;5037614;28;20100;-69
2024/03/06 13:25:15;;;;;;;8.40;6.18;;;;;;;;;;5038124;28;20017;-69
2024/03/06 13:28:01;;;;;;;8.95;6.13;;;;;;;;;;5054146;28;20059;-66
2024/03/06 13:30:47;;;;;;;10.40;6.45;;;;;;;;;;5052583;28;20024;-69
2024/03/06 13:33:33;;;;;;;10.68;5.90;;;;;;;;;;5053992;28;20037;-69
2024/03/06 13:36:18;;;;;;;11.20;5.00;;;;;;;;;;5053794;28;20406;-69
2024/03/06 13:39:04;;;;;;;9.13;6.15;;;;;;;;;;5053234;28;20021;-69
2024/03/06 13:41:50;;;;;;;8.13;5.25;;;;;;;;;;5034461;28;20501;-69
2024/03/06 13:44:36;;;;;;;9.80;5.72;;;;;;;;;;5036251;28;20028;-69
2024/03/06 13:47:22;;;;;;;8.57;5.90;;;;;;;;;;5019086;28;20029;-69
2024/03/06 13:50:12;;;;;;;11.82;6.53;;;;;;;;;;5033939;28;20029;-69
2024/03/06 13:52:57;;;;;;;10.95;5.88;;;;;;;;;;5052726;28;20065;-69
2024/03/06 13:55:43;;;;;;;9.52;5.85;;;;;;;;;;5052620;28;20039;-70
2024/03/06 13:58:29;;;;;;;7.10;5.13;;;;;;;;;;5053554;28;20025;-69
2024/03/06 14:01:14;;;;;;;8.68;6.78;;;;;;;;;;5052853;28;20086;-69
2024/03/06 14:04:00;;;;;;;9.95;6.35;;;;;;;;;;5052135;28;20086;-69
2024/03/06 14:06:45;;;;;;;9.85;6.18;;;;;;;;;;5051394;28;20025;-69
2024/03/06 14:09:31;;;;;;;8.52;5.38;;;;;;;;;;5045333;28;20034;-70
2024/03/06 14:12:17;;;;;;;9.52;5.95;;;;;;;;;;5036515;28;20036;-70
2024/03/06 14:15:12;;;;;;;12.90;4.82;;;;;;;;;;5032988;28;20441;-70
2024/03/06 14:17:57;;;;;;;14.90;5.40;;;;;;;;;;5042534;28;20095;-69
2024/03/06 14:20:43;;;;;;;9.43;6.60;;;;;;;;;;5032526;28;20033;-69
2024/03/06 14:23:29;;;;;;;9.18;5.82;;;;;;;;;;5039802;28;20009;-68
2024/03/06 14:26:16;;;;;;;9.15;6.03;;;;;;;;;;5053477;28;20028;-69
2024/03/06 14:29:02;;;;;;;10.30;6.05;;;;;;;;;;5046391;28;20479;-70
2024/03/06 14:31:47;;;;;;;9.13;6.00;;;;;;;;;;5033975;28;20084;-69
2024/03/06 14:34:33;;;;;;;10.82;6.28;;;;;;;;;;5033247;28;20025;-70
2024/03/06 14:37:19;;;;;;;11.40;6.32;;;;;;;;;;5034562;28;20036;-69
2024/03/06 14:40:08;;;;;;;10.77;6.55;;;;;;;;;;5033643;28;20505;-69
2024/03/06 14:42:53;;;;;;;9.35;5.63;;;;;;;;;;5052223;28;20104;-70
2024/03/06 14:45:41;;;;;;;10.75;7.00;;;;;;;;;;5052207;28;20021;-69
2024/03/06 14:48:27;;;;;;;13.57;7.32;;;;;;;;;;5052940;28;20107;-70
2024/03/06 14:51:13;;;;;;;9.88;6.28;;;;;;;;;;5052751;28;20724;-70
2024/03/06 14:53:59;;;;;;;11.90;6.93;;;;;;;;;;5043238;28;20083;-70
2024/03/06 14:56:44;;;;;;;12.95;6.72;;;;;;;;;;5035727;28;20037;-70
2024/03/06 14:59:30;;;;;;;11.43;6.53;;;;;;;;;;5032383;28;20413;-69
2024/03/06 15:02:16;;;;;;;10.70;7.15;;;;;;;;;;5041342;28;20021;-70
2024/03/06 15:05:02;;;;;;;9.70;6.68;;;;;;;;;;5032834;28;20017;-69
2024/03/06 15:07:48;;;;;;;13.18;7.07;;;;;;;;;;5040307;28;20119;-69
2024/03/06 15:10:34;;;;;;;9.50;5.65;;;;;;;;;;5052352;28;20456;-69
2024/03/06 15:13:19;;;;;;;14.00;7.93;;;;;;;;;;5037628;28;20041;-69
2024/03/06 15:16:05;;;;;;;10.48;7.18;;;;;;;;;;5040587;28;20038;-70
2024/03/06 15:18:53;;;;;;;12.55;7.55;;;;;;;;;;5032626;28;20022;-70
2024/03/06 15:21:39;;;;;;;12.75;6.78;;;;;;;;;;5023041;28;20032;-70
2024/03/06 15:24:24;;;;;;;11.98;7.05;;;;;;;;;;5049165;28;20478;-70
2024/03/06 15:27:11;;;;;;;12.10;6.88;;;;;;;;;;5052171;28;20079;-70
2024/03/06 15:29:57;;;;;;;14.50;7.10;;;;;;;;;;5037367;28;20025;-70
2024/03/06 15:32:42;;;;;;;12.00;7.20;;;;;;;;;;5051956;28;20082;-69
2024/03/06 15:35:28;;;;;;;10.88;7.20;;;;;;;;;;5032714;28;20108;-70
2024/03/06 15:38:13;;;;;;;9.63;7.10;;;;;;;;;;5032213;28;20059;-70
2024/03/06 15:40:59;;;;;;;15.60;7.28;;;;;;;;;;5035878;28;20108;-70
2024/03/06 15:43:45;;;;;;;12.43;7.55;;;;;;;;;;5031443;28;20134;-69
2024/03/06 15:46:33;;;;;;;11.50;7.40;;;;;;;;;;5039250;28;20034;-70
2024/03/06 15:49:20;;;;;;;12.00;7.78;;;;;;;;;;5017099;28;20053;-70
2024/03/06 15:52:06;;;;;;;20.00;8.38;;;;;;;;;;5024776;28;20018;-70
2024/03/06 15:54:52;;;;;;;12.00;7.47;;;;;;;;;;5038533;28;20410;-70
2024/03/06 15:57:38;;;;;;;11.45;7.10;;;;;;;;;;5051490;28;20025;-69
2024/03/06 16:00:24;;;;;;;10.48;6.55;;;;;;;;;;5029879;28;20031;-69
2024/03/06 16:03:10;;;;;;;11.27;6.07;;;;;;;;;;5052279;28;20020;-70
2024/03/06 16:05:55;;;;;;;10.65;6.35;;;;;;;;;;5051258;28;20141;-70
2024/03/06 16:08:42;;;;;;;13.68;7.50;;;;;;;;;;5051988;28;20490;-69
2024/03/06 16:11:28;;;;;;;8.85;6.53;;;;;;;;;;5052153;28;20021;-70
2024/03/06 16:14:14;;;;;;;14.05;8.27;;;;;;;;;;5051478;28;20025;-70
2024/03/06 16:17:05;;;;;;;9.05;5.57;;;;;;;;;;5051772;28;20398;-70
2024/03/06 16:19:52;;;;;;;10.20;6.15;;;;;;;;;;5050737;28;20415;-70
2024/03/06 16:22:37;;;;;;;9.38;6.25;;;;;;;;;;5052872;28;20013;-70
2024/03/06 16:25:23;;;;;;;8.88;6.07;;;;;;;;;;5052265;28;20060;-70
2024/03/06 16:28:08;;;;;;;7.63;6.80;;;;;;;;;;5055218;28;20087;-70